Time;durP1;ratioP1;P1;durP2;ratioP2;P2;SDS_P1;SDS_P2;PMS_P1;PMS_P2;Temp;Humidity;BMP_temperature;BMP_pressure;BME280_temperature;BME280_humidity;BME280_pressure;Samples;Min_cycle;Max_cycle;Signal;HPM_P1;HPM_P2
2021/04/10 00:00:15;;;;;;;12.13;2.58;;;;;;;;;;5063360;28;20036;-61
2021/04/10 00:02:45;;;;;;;14.25;2.63;;;;;;;;;;5063783;28;20476;-62
2021/04/10 00:05:17;;;;;;;10.40;2.40;;;;;;;;;;5063572;28;20890;-62
2021/04/10 00:07:43;;;;;;;9.90;2.55;;;;;;;;;;5060474;28;20044;-61
2021/04/10 00:10:09;;;;;;;10.60;2.70;;;;;;;;;;5058120;28;20028;-61
2021/04/10 00:12:34;;;;;;;3.05;1.98;;;;;;;;;;5067894;28;20036;-62
2021/04/10 00:15:00;;;;;;;6.85;2.00;;;;;;;;;;5063723;28;20036;-61
2021/04/10 00:17:25;;;;;;;5.63;2.88;;;;;;;;;;5069980;28;20135;-64
2021/04/10 00:19:53;;;;;;;12.55;2.25;;;;;;;;;;5070545;28;20081;-63
2021/04/10 00:22:23;;;;;;;9.90;2.17;;;;;;;;;;5062081;28;20064;-61
2021/04/10 00:24:51;;;;;;;9.93;2.10;;;;;;;;;;5049328;28;20523;-61
2021/04/10 00:27:19;;;;;;;4.95;2.20;;;;;;;;;;5061166;28;20059;-61
2021/04/10 00:29:44;;;;;;;9.80;2.78;;;;;;;;;;5061130;28;20072;-61
2021/04/10 00:32:15;;;;;;;5.38;2.38;;;;;;;;;;5063591;28;20039;-61
2021/04/10 00:34:40;;;;;;;7.60;2.03;;;;;;;;;;5062918;28;20028;-62
2021/04/10 00:37:08;;;;;;;5.05;2.15;;;;;;;;;;5052354;28;20840;-61
2021/04/10 00:39:33;;;;;;;6.53;2.22;;;;;;;;;;5064083;28;20042;-61
2021/04/10 00:42:01;;;;;;;4.35;2.00;;;;;;;;;;5059123;28;20028;-61
2021/04/10 00:44:29;;;;;;;9.68;2.22;;;;;;;;;;5062053;28;20533;-61
2021/04/10 00:46:55;;;;;;;14.55;2.53;;;;;;;;;;5062192;28;20047;-61
2021/04/10 00:49:22;;;;;;;13.48;2.85;;;;;;;;;;5057752;28;20047;-61
2021/04/10 00:51:48;;;;;;;6.13;2.13;;;;;;;;;;5058802;28;20040;-61
2021/04/10 00:54:13;;;;;;;7.93;2.58;;;;;;;;;;5060188;28;20066;-61
2021/04/10 00:56:41;;;;;;;12.00;2.83;;;;;;;;;;5067361;28;20047;-61
2021/04/10 00:59:09;;;;;;;12.48;2.22;;;;;;;;;;5056818;28;20102;-61
2021/04/10 01:01:36;;;;;;;7.32;2.08;;;;;;;;;;5074837;27;20044;-64
2021/04/10 01:04:02;;;;;;;5.63;2.03;;;;;;;;;;5061511;28;20408;-60
2021/04/10 01:06:30;;;;;;;7.82;2.25;;;;;;;;;;5066887;28;20051;-61
2021/04/10 01:08:58;;;;;;;9.73;1.70;;;;;;;;;;5061033;28;20040;-61
2021/04/10 01:11:35;;;;;;;17.42;2.88;;;;;;;;;;5044973;28;21218;-61
2021/04/10 01:14:08;;;;;;;6.45;2.03;;;;;;;;;;5048888;28;20032;-61
2021/04/10 01:16:53;;;;;;;9.77;2.28;;;;;;;;;;5049234;28;20157;-62
2021/04/10 01:19:21;;;;;;;5.55;2.05;;;;;;;;;;5050274;28;20027;-60
2021/04/10 01:22:07;;;;;;;12.57;1.92;;;;;;;;;;5068590;28;20036;-60
2021/04/10 01:24:36;;;;;;;9.25;1.95;;;;;;;;;;5060016;28;20037;-61
2021/04/10 01:27:23;;;;;;;9.82;1.95;;;;;;;;;;5060185;28;21922;-61
2021/04/10 01:29:54;;;;;;;8.20;2.33;;;;;;;;;;5062121;28;20034;-61
2021/04/10 01:32:27;;;;;;;6.40;1.50;;;;;;;;;;5062480;28;22087;-61
2021/04/10 01:34:55;;;;;;;10.30;1.80;;;;;;;;;;5057455;28;20016;-61
2021/04/10 01:37:25;;;;;;;6.43;1.35;;;;;;;;;;5061998;28;20036;-61
2021/04/10 01:39:56;;;;;;;14.75;2.20;;;;;;;;;;5067130;28;20127;-61
2021/04/10 01:42:28;;;;;;;6.93;1.80;;;;;;;;;;5059698;28;20214;-62
2021/04/10 01:44:57;;;;;;;12.57;2.17;;;;;;;;;;5059322;28;20055;-61
2021/04/10 01:47:29;;;;;;;7.35;2.08;;;;;;;;;;5059967;28;20043;-62
2021/04/10 01:49:55;;;;;;;13.07;1.55;;;;;;;;;;5061815;28;20113;-60
2021/04/10 01:52:21;;;;;;;11.57;1.95;;;;;;;;;;5066533;28;20159;-60
2021/04/10 01:54:50;;;;;;;4.13;1.52;;;;;;;;;;5059703;28;20047;-61
2021/04/10 01:57:19;;;;;;;3.15;1.77;;;;;;;;;;5061409;28;20028;-61
2021/04/10 01:59:47;;;;;;;5.40;2.05;;;;;;;;;;5061737;28;20055;-61
2021/04/10 02:02:13;;;;;;;5.32;1.70;;;;;;;;;;5044331;28;20498;-61
2021/04/10 02:04:41;;;;;;;6.38;1.83;;;;;;;;;;5045252;28;20110;-60
2021/04/10 02:07:08;;;;;;;7.53;2.60;;;;;;;;;;5064117;28;21172;-61
2021/04/10 02:09:36;;;;;;;9.35;1.77;;;;;;;;;;5059258;28;20056;-61
2021/04/10 02:12:03;;;;;;;12.90;2.35;;;;;;;;;;5058310;28;20113;-61
2021/04/10 02:14:34;;;;;;;11.38;1.77;;;;;;;;;;5067342;28;20028;-60
2021/04/10 02:17:01;;;;;;;10.30;2.28;;;;;;;;;;5061535;28;20055;-60
2021/04/10 02:19:35;;;;;;;6.78;1.63;;;;;;;;;;5066624;28;20043;-60
2021/04/10 02:22:03;;;;;;;6.32;1.30;;;;;;;;;;5061264;28;20480;-61
2021/04/10 02:24:33;;;;;;;3.15;1.40;;;;;;;;;;5040495;28;20047;-61
2021/04/10 02:27:04;;;;;;;10.23;1.70;;;;;;;;;;5042253;28;20095;-61
2021/04/10 02:29:32;;;;;;;3.35;1.25;;;;;;;;;;5042777;28;20072;-61
2021/04/10 02:32:04;;;;;;;12.70;2.15;;;;;;;;;;5060395;28;20044;-61
2021/04/10 02:34:35;;;;;;;7.22;1.80;;;;;;;;;;5060908;28;20172;-61
2021/04/10 02:37:03;;;;;;;4.22;1.95;;;;;;;;;;5062477;28;20031;-61
2021/04/10 02:39:31;;;;;;;3.65;2.22;;;;;;;;;;5065731;28;20036;-62
2021/04/10 02:42:02;;;;;;;7.70;1.50;;;;;;;;;;5061177;28;20023;-62
2021/04/10 02:44:36;;;;;;;3.90;1.63;;;;;;;;;;5047528;28;20078;-63
2021/04/10 02:47:05;;;;;;;11.60;2.30;;;;;;;;;;5059732;28;20503;-60
2021/04/10 02:49:33;;;;;;;4.95;1.67;;;;;;;;;;5045531;28;20040;-63
2021/04/10 02:52:00;;;;;;;7.88;1.88;;;;;;;;;;5065176;28;20533;-62
2021/04/10 02:54:27;;;;;;;5.88;2.33;;;;;;;;;;5061596;28;20063;-61
2021/04/10 02:56:58;;;;;;;10.30;2.13;;;;;;;;;;5059726;28;20040;-61
2021/04/10 02:59:28;;;;;;;8.82;1.67;;;;;;;;;;5059270;28;20028;-61
2021/04/10 03:01:55;;;;;;;4.57;1.40;;;;;;;;;;5046790;28;20028;-61
2021/04/10 03:04:22;;;;;;;5.22;1.58;;;;;;;;;;5059684;28;20142;-61
2021/04/10 03:06:48;;;;;;;7.15;1.42;;;;;;;;;;5073341;28;20049;-61
2021/04/10 03:09:14;;;;;;;8.02;1.35;;;;;;;;;;5061015;28;20036;-61
2021/04/10 03:11:44;;;;;;;6.55;1.58;;;;;;;;;;5052522;28;20145;-61
2021/04/10 03:14:10;;;;;;;3.70;1.40;;;;;;;;;;5064148;28;20024;-63
2021/04/10 03:16:38;;;;;;;4.05;1.42;;;;;;;;;;5070868;28;20134;-62
2021/04/10 03:19:05;;;;;;;2.78;1.45;;;;;;;;;;5066105;28;20468;-61
2021/04/10 03:21:31;;;;;;;4.40;1.15;;;;;;;;;;5070031;27;20032;-63
2021/04/10 03:23:56;;;;;;;9.00;1.20;;;;;;;;;;5065235;28;20031;-62
2021/04/10 03:26:27;;;;;;;4.88;1.10;;;;;;;;;;5065686;28;20122;-62
2021/04/10 03:28:53;;;;;;;12.15;1.80;;;;;;;;;;5065762;28;20031;-61
2021/04/10 03:31:23;;;;;;;8.05;1.65;;;;;;;;;;5054592;28;20724;-61
2021/04/10 03:33:49;;;;;;;6.72;1.63;;;;;;;;;;5074345;28;20087;-60
2021/04/10 03:36:14;;;;;;;6.40;1.60;;;;;;;;;;5069045;28;20562;-61
2021/04/10 03:38:42;;;;;;;9.57;1.60;;;;;;;;;;5062990;28;21329;-61
2021/04/10 03:41:12;;;;;;;5.30;0.88;;;;;;;;;;5056091;28;20115;-61
2021/04/10 03:43:41;;;;;;;7.95;1.25;;;;;;;;;;5054254;28;20044;-62
2021/04/10 03:46:09;;;;;;;6.68;1.77;;;;;;;;;;5064250;28;20093;-61
2021/04/10 03:48:37;;;;;;;6.40;0.90;;;;;;;;;;5069813;28;20137;-61
2021/04/10 03:51:03;;;;;;;5.13;1.40;;;;;;;;;;5066364;28;20032;-61
2021/04/10 03:53:31;;;;;;;7.20;1.80;;;;;;;;;;5065936;28;20040;-62
2021/04/10 03:55:58;;;;;;;7.07;1.73;;;;;;;;;;5067039;28;20915;-62
2021/04/10 03:58:29;;;;;;;6.45;1.27;;;;;;;;;;5066561;28;20060;-61
2021/04/10 04:00:56;;;;;;;6.57;1.35;;;;;;;;;;5036612;28;21951;-61
2021/04/10 04:03:24;;;;;;;3.30;1.40;;;;;;;;;;5065503;28;20039;-62
2021/04/10 04:05:52;;;;;;;9.18;1.40;;;;;;;;;;5072068;28;20038;-61
2021/04/10 04:08:20;;;;;;;7.80;1.70;;;;;;;;;;5066605;28;20031;-61
2021/04/10 04:10:51;;;;;;;10.68;1.58;;;;;;;;;;5064053;28;20038;-62
2021/04/10 04:13:19;;;;;;;9.02;2.03;;;;;;;;;;5044765;28;20556;-62
2021/04/10 04:15:47;;;;;;;11.80;0.98;;;;;;;;;;5051392;28;20168;-61
2021/04/10 04:18:17;;;;;;;3.25;0.80;;;;;;;;;;5066798;28;20151;-62
2021/04/10 04:20:45;;;;;;;5.30;1.10;;;;;;;;;;5056657;28;20666;-61
2021/04/10 04:23:11;;;;;;;6.15;1.00;;;;;;;;;;5067108;28;20036;-62
2021/04/10 04:25:39;;;;;;;9.68;1.25;;;;;;;;;;5047986;28;20078;-63
2021/04/10 04:28:05;;;;;;;9.95;1.60;;;;;;;;;;5049168;28;20036;-62
2021/04/10 04:30:30;;;;;;;5.13;0.80;;;;;;;;;;5042097;28;21005;-62
2021/04/10 04:33:03;;;;;;;4.40;1.00;;;;;;;;;;5048880;28;20365;-62
2021/04/10 04:35:33;;;;;;;1.98;1.00;;;;;;;;;;5068289;28;20033;-61
2021/04/10 04:38:03;;;;;;;10.48;1.83;;;;;;;;;;5060691;28;20071;-60
2021/04/10 04:40:29;;;;;;;11.82;1.00;;;;;;;;;;5061276;28;20021;-61
2021/04/10 04:42:58;;;;;;;7.80;1.60;;;;;;;;;;5042721;28;20050;-62
2021/04/10 04:45:28;;;;;;;7.80;1.45;;;;;;;;;;5069279;28;20118;-61
2021/04/10 04:47:56;;;;;;;3.40;0.85;;;;;;;;;;5045438;28;20123;-64
2021/04/10 04:50:23;;;;;;;4.90;1.10;;;;;;;;;;5052921;28;20046;-61
2021/04/10 04:52:51;;;;;;;5.05;1.10;;;;;;;;;;5068897;28;20671;-61
2021/04/10 04:55:20;;;;;;;4.15;1.27;;;;;;;;;;5063809;28;20582;-60
2021/04/10 04:57:48;;;;;;;2.80;1.48;;;;;;;;;;5063496;28;20037;-60
2021/04/10 05:00:13;;;;;;;8.27;0.98;;;;;;;;;;5062371;28;20040;-61
2021/04/10 05:02:41;;;;;;;9.65;1.42;;;;;;;;;;5060109;28;21024;-60
2021/04/10 05:05:09;;;;;;;7.35;1.30;;;;;;;;;;5061671;28;20044;-61
2021/04/10 05:07:37;;;;;;;2.75;0.73;;;;;;;;;;5046476;28;20036;-61
2021/04/10 05:10:08;;;;;;;5.68;0.95;;;;;;;;;;5066641;28;20049;-61
2021/04/10 05:12:33;;;;;;;5.90;1.35;;;;;;;;;;5063182;28;20085;-61
2021/04/10 05:15:04;;;;;;;10.32;1.20;;;;;;;;;;5035630;28;20029;-61
2021/04/10 05:17:32;;;;;;;5.60;1.27;;;;;;;;;;5064264;28;20032;-62
2021/04/10 05:19:58;;;;;;;8.48;1.50;;;;;;;;;;5062676;28;20128;-61
2021/04/10 05:22:25;;;;;;;6.43;1.30;;;;;;;;;;5061180;28;20035;-61
2021/04/10 05:24:53;;;;;;;6.22;1.58;;;;;;;;;;5060638;28;20051;-60
2021/04/10 05:27:21;;;;;;;9.45;1.38;;;;;;;;;;5067003;28;20050;-61
2021/04/10 05:29:46;;;;;;;7.50;1.27;;;;;;;;;;5066021;28;20036;-61
2021/04/10 05:32:12;;;;;;;5.40;1.30;;;;;;;;;;5062987;28;20028;-62
2021/04/10 05:34:40;;;;;;;8.80;1.50;;;;;;;;;;5061883;28;20395;-60
2021/04/10 05:37:06;;;;;;;3.55;1.48;;;;;;;;;;5048447;28;20036;-61
2021/04/10 05:39:32;;;;;;;6.45;1.08;;;;;;;;;;5062238;28;20055;-61
2021/04/10 05:41:58;;;;;;;3.70;1.52;;;;;;;;;;5060685;28;20032;-61
2021/04/10 05:44:25;;;;;;;6.90;1.30;;;;;;;;;;5060896;28;20083;-61
2021/04/10 05:46:53;;;;;;;9.98;1.10;;;;;;;;;;5065546;28;20943;-60
2021/04/10 05:49:19;;;;;;;9.23;1.20;;;;;;;;;;5061515;28;20047;-61
2021/04/10 05:51:44;;;;;;;14.00;1.65;;;;;;;;;;5061003;28;20468;-61
2021/04/10 05:54:12;;;;;;;3.78;1.48;;;;;;;;;;5059784;28;20158;-62
2021/04/10 05:56:40;;;;;;;5.95;2.42;;;;;;;;;;5049180;28;20131;-61
2021/04/10 05:59:06;;;;;;;9.10;1.98;;;;;;;;;;5061398;28;20032;-60
2021/04/10 06:01:31;;;;;;;8.77;1.58;;;;;;;;;;5059558;28;20090;-61
2021/04/10 06:04:00;;;;;;;9.00;1.42;;;;;;;;;;5060326;28;20519;-61
2021/04/10 06:06:28;;;;;;;5.90;1.10;;;;;;;;;;5046078;28;20105;-62
2021/04/10 06:08:54;;;;;;;14.43;1.75;;;;;;;;;;5062669;28;20027;-62
2021/04/10 06:11:26;;;;;;;6.78;1.25;;;;;;;;;;5062544;28;20028;-61
2021/04/10 06:13:52;;;;;;;8.35;0.95;;;;;;;;;;5061589;28;20032;-61
2021/04/10 06:16:17;;;;;;;10.30;1.80;;;;;;;;;;5061240;28;20556;-61
2021/04/10 06:18:43;;;;;;;10.07;1.38;;;;;;;;;;5059756;28;20036;-62
2021/04/10 06:21:09;;;;;;;6.20;0.90;;;;;;;;;;5066500;28;20594;-62
2021/04/10 06:23:34;;;;;;;9.60;0.93;;;;;;;;;;5060308;28;20081;-63
2021/04/10 06:26:00;;;;;;;6.93;1.13;;;;;;;;;;5060266;28;20665;-61
2021/04/10 06:28:26;;;;;;;3.22;1.13;;;;;;;;;;5048454;28;20105;-61
2021/04/10 06:30:54;;;;;;;7.53;1.30;;;;;;;;;;5064842;28;20042;-60
2021/04/10 06:33:23;;;;;;;3.38;0.98;;;;;;;;;;5060247;28;20582;-60
2021/04/10 06:35:57;;;;;;;8.35;0.82;;;;;;;;;;5043820;28;20060;-61
2021/04/10 06:38:23;;;;;;;7.65;1.77;;;;;;;;;;5059229;28;20039;-62
2021/04/10 06:40:49;;;;;;;8.02;1.13;;;;;;;;;;5057317;28;20496;-62
2021/04/10 06:43:15;;;;;;;6.80;1.20;;;;;;;;;;5038103;28;20054;-61
2021/04/10 06:45:46;;;;;;;6.38;1.02;;;;;;;;;;5062821;28;20031;-61
2021/04/10 06:48:15;;;;;;;4.78;1.10;;;;;;;;;;5058285;28;20070;-62
2021/04/10 06:50:44;;;;;;;3.72;1.02;;;;;;;;;;5065170;28;20353;-62
2021/04/10 06:53:20;;;;;;;9.18;1.00;;;;;;;;;;5059030;28;20028;-61
2021/04/10 06:55:55;;;;;;;7.45;1.10;;;;;;;;;;5055289;28;20491;-61
2021/04/10 06:58:36;;;;;;;7.95;1.42;;;;;;;;;;5059131;28;20558;-62
2021/04/10 07:01:04;;;;;;;4.32;1.02;;;;;;;;;;5056956;28;20198;-62
2021/04/10 07:03:30;;;;;;;3.60;0.90;;;;;;;;;;5060555;28;20500;-62
2021/04/10 07:06:00;;;;;;;4.93;0.95;;;;;;;;;;5058945;28;20028;-63
2021/04/10 07:08:28;;;;;;;7.18;1.10;;;;;;;;;;5058679;28;20679;-63
2021/04/10 07:10:54;;;;;;;3.28;0.63;;;;;;;;;;5047821;28;20037;-63
2021/04/10 07:13:23;;;;;;;10.30;1.15;;;;;;;;;;5060185;28;20035;-63
2021/04/10 07:15:51;;;;;;;3.75;1.27;;;;;;;;;;5063573;28;20027;-64
2021/04/10 07:18:26;;;;;;;2.53;0.73;;;;;;;;;;5040191;28;20049;-63
2021/04/10 07:20:51;;;;;;;2.92;0.70;;;;;;;;;;5059819;28;20109;-62
2021/04/10 07:23:20;;;;;;;7.70;1.27;;;;;;;;;;5058102;28;20054;-63
2021/04/10 07:25:49;;;;;;;4.38;0.70;;;;;;;;;;5060233;28;20032;-62
2021/04/10 07:28:21;;;;;;;8.23;0.93;;;;;;;;;;5057329;28;20045;-62
2021/04/10 07:31:00;;;;;;;12.30;1.55;;;;;;;;;;5057746;28;20153;-63
2021/04/10 07:33:36;;;;;;;3.22;0.60;;;;;;;;;;5060553;28;21080;-66
2021/04/10 07:36:03;;;;;;;5.07;0.80;;;;;;;;;;5060794;28;20031;-63
2021/04/10 07:38:32;;;;;;;5.65;0.88;;;;;;;;;;5058211;28;20078;-62
2021/04/10 07:41:00;;;;;;;10.40;0.70;;;;;;;;;;5057849;28;20024;-64
2021/04/10 07:43:27;;;;;;;8.60;0.98;;;;;;;;;;5057094;28;20032;-63
2021/04/10 07:46:15;;;;;;;5.47;1.35;;;;;;;;;;5058961;28;20056;-63
2021/04/10 07:49:02;;;;;;;6.03;0.90;;;;;;;;;;5059189;28;20041;-63
2021/04/10 07:51:28;;;;;;;11.13;1.00;;;;;;;;;;5056752;28;20040;-65
2021/04/10 07:54:02;;;;;;;7.38;0.82;;;;;;;;;;5059405;28;20051;-65
2021/04/10 07:56:48;;;;;;;3.85;0.68;;;;;;;;;;5057055;28;20143;-64
2021/04/10 07:59:17;;;;;;;6.18;1.38;;;;;;;;;;5058130;28;20127;-64
2021/04/10 08:01:45;;;;;;;2.13;1.10;;;;;;;;;;5060119;28;20028;-65
2021/04/10 08:04:15;;;;;;;4.00;1.52;;;;;;;;;;5062350;28;20047;-65
2021/04/10 08:06:56;;;;;;;3.03;0.93;;;;;;;;;;5062403;28;20032;-63
2021/04/10 08:09:39;;;;;;;11.43;1.25;;;;;;;;;;5067941;28;20479;-64
2021/04/10 08:12:11;;;;;;;11.00;1.38;;;;;;;;;;5052225;28;20032;-65
2021/04/10 08:14:43;;;;;;;10.38;1.05;;;;;;;;;;5068019;28;20186;-64
2021/04/10 08:17:08;;;;;;;10.43;0.70;;;;;;;;;;5062652;28;20111;-64
2021/04/10 08:19:39;;;;;;;10.45;1.20;;;;;;;;;;5063619;28;20038;-63
2021/04/10 08:22:05;;;;;;;4.55;1.15;;;;;;;;;;5044369;28;20094;-62
2021/04/10 08:24:36;;;;;;;11.00;1.20;;;;;;;;;;5066998;28;20035;-62
2021/04/10 08:27:03;;;;;;;5.35;1.00;;;;;;;;;;5061433;28;20032;-63
2021/04/10 08:29:31;;;;;;;6.82;0.80;;;;;;;;;;5064262;28;21048;-61
2021/04/10 08:31:58;;;;;;;5.32;0.68;;;;;;;;;;5059935;28;22079;-63
2021/04/10 08:34:23;;;;;;;4.70;0.80;;;;;;;;;;5060821;28;20029;-62
2021/04/10 08:36:53;;;;;;;4.93;0.80;;;;;;;;;;5062805;28;20114;-63
2021/04/10 08:39:20;;;;;;;3.28;0.63;;;;;;;;;;5048856;28;20718;-64
2021/04/10 08:41:53;;;;;;;10.57;1.13;;;;;;;;;;5060947;28;20070;-64
2021/04/10 08:44:22;;;;;;;2.45;0.80;;;;;;;;;;5061781;28;20064;-63
2021/04/10 08:46:48;;;;;;;6.20;0.80;;;;;;;;;;5058977;28;20039;-63
2021/04/10 08:49:17;;;;;;;4.03;1.02;;;;;;;;;;5064923;28;20063;-62
2021/04/10 08:51:45;;;;;;;5.18;0.90;;;;;;;;;;5044707;28;20710;-63
2021/04/10 08:54:11;;;;;;;6.82;1.10;;;;;;;;;;5077142;27;20031;-64
2021/04/10 08:56:42;;;;;;;4.20;0.80;;;;;;;;;;5060976;28;20711;-63
2021/04/10 08:59:11;;;;;;;4.07;0.80;;;;;;;;;;5058555;28;20028;-63
2021/04/10 09:01:42;;;;;;;6.07;0.70;;;;;;;;;;5064428;28;20033;-62
2021/04/10 09:04:08;;;;;;;10.77;1.48;;;;;;;;;;5045299;28;20024;-63
2021/04/10 09:06:39;;;;;;;3.70;0.82;;;;;;;;;;5062068;28;21027;-62
2021/04/10 09:09:11;;;;;;;4.25;1.05;;;;;;;;;;5063296;28;20217;-61
2021/04/10 09:11:40;;;;;;;5.03;0.80;;;;;;;;;;5057610;28;20114;-64
2021/04/10 09:14:08;;;;;;;5.40;0.88;;;;;;;;;;5060847;28;20031;-62
2021/04/10 09:16:48;;;;;;;12.10;1.05;;;;;;;;;;5060326;28;20034;-63
2021/04/10 09:19:17;;;;;;;2.58;0.85;;;;;;;;;;5049300;28;20073;-62
2021/04/10 09:21:44;;;;;;;6.35;1.00;;;;;;;;;;5055879;28;20965;-63
2021/04/10 09:24:23;;;;;;;3.38;0.90;;;;;;;;;;5062191;28;20039;-61
2021/04/10 09:27:00;;;;;;;8.05;1.00;;;;;;;;;;5065076;28;20209;-63
2021/04/10 09:29:29;;;;;;;5.78;1.02;;;;;;;;;;5067971;28;21010;-63
2021/04/10 09:32:01;;;;;;;5.47;1.17;;;;;;;;;;5061569;28;20044;-62
2021/04/10 09:34:46;;;;;;;4.22;0.63;;;;;;;;;;5060215;28;20096;-65
2021/04/10 09:37:23;;;;;;;8.20;1.00;;;;;;;;;;5048009;28;20028;-62
2021/04/10 09:39:56;;;;;;;3.35;0.85;;;;;;;;;;5060211;28;20038;-62
2021/04/10 09:42:34;;;;;;;1.15;0.43;;;;;;;;;;5061362;28;22083;-64
2021/04/10 09:45:19;;;;;;;5.35;0.88;;;;;;;;;;5066881;28;20048;-64
2021/04/10 09:50:30;;;;;;;8.23;1.13;;;;;;;;;;5060533;28;20483;-62
2021/04/10 09:52:58;;;;;;;3.55;1.27;;;;;;;;;;5058648;28;20028;-62
2021/04/10 09:55:29;;;;;;;8.18;0.85;;;;;;;;;;5042475;28;20031;-61
2021/04/10 09:57:58;;;;;;;10.23;0.80;;;;;;;;;;5058772;28;20043;-62
2021/04/10 10:00:25;;;;;;;9.98;1.30;;;;;;;;;;5057828;28;21019;-63
2021/04/10 10:02:53;;;;;;;4.43;1.10;;;;;;;;;;5063159;28;20039;-64
2021/04/10 10:05:24;;;;;;;6.05;1.10;;;;;;;;;;5063913;28;20120;-62
2021/04/10 10:07:59;;;;;;;7.68;0.90;;;;;;;;;;5060239;28;20037;-63
2021/04/10 10:10:31;;;;;;;4.85;0.90;;;;;;;;;;5057680;28;20039;-64
2021/04/10 10:13:05;;;;;;;5.95;0.85;;;;;;;;;;5055089;28;20065;-63
2021/04/10 10:15:31;;;;;;;3.28;0.80;;;;;;;;;;5056620;28;20104;-62
2021/04/10 10:17:59;;;;;;;7.03;1.48;;;;;;;;;;5062447;28;20109;-63
2021/04/10 10:20:27;;;;;;;8.90;0.77;;;;;;;;;;5061949;28;20876;-62
2021/04/10 10:23:12;;;;;;;3.42;0.93;;;;;;;;;;5049676;28;20395;-61
2021/04/10 10:25:40;;;;;;;8.10;1.52;;;;;;;;;;5059682;28;20099;-62
2021/04/10 10:28:06;;;;;;;3.63;0.77;;;;;;;;;;5059002;28;20637;-63
2021/04/10 10:30:41;;;;;;;10.93;1.25;;;;;;;;;;5059100;28;20546;-63
2021/04/10 10:33:12;;;;;;;3.30;0.82;;;;;;;;;;5060161;28;20404;-60
2021/04/10 10:35:38;;;;;;;3.53;0.90;;;;;;;;;;5057553;28;20123;-61
2021/04/10 10:38:05;;;;;;;4.60;1.15;;;;;;;;;;5061837;28;20032;-62
2021/04/10 10:40:34;;;;;;;3.80;0.90;;;;;;;;;;5057526;28;20136;-62
2021/04/10 10:43:08;;;;;;;2.35;0.70;;;;;;;;;;5054645;28;20032;-63
2021/04/10 10:45:53;;;;;;;9.23;1.02;;;;;;;;;;5042939;28;20212;-62
2021/04/10 10:48:23;;;;;;;6.13;1.00;;;;;;;;;;5053946;28;20048;-61
2021/04/10 10:51:00;;;;;;;5.28;1.13;;;;;;;;;;5057309;28;20113;-61
2021/04/10 10:53:29;;;;;;;2.78;0.32;;;;;;;;;;5059855;28;20040;-62
2021/04/10 10:55:59;;;;;;;3.72;0.98;;;;;;;;;;5060580;28;20815;-62
2021/04/10 10:58:27;;;;;;;4.82;1.20;;;;;;;;;;5053320;28;20170;-62
2021/04/10 11:00:57;;;;;;;7.57;1.75;;;;;;;;;;5061496;28;20066;-62
2021/04/10 11:03:23;;;;;;;6.55;1.33;;;;;;;;;;5056531;28;20615;-63
2021/04/10 11:05:49;;;;;;;6.60;1.48;;;;;;;;;;5056225;28;20031;-63
2021/04/10 11:08:21;;;;;;;5.30;1.30;;;;;;;;;;5061278;28;20139;-62
2021/04/10 11:10:50;;;;;;;6.18;1.33;;;;;;;;;;5059161;28;21269;-61
2021/04/10 11:13:19;;;;;;;10.80;0.95;;;;;;;;;;5059895;28;20038;-64
2021/04/10 11:15:48;;;;;;;8.45;0.80;;;;;;;;;;5059904;28;20118;-62
2021/04/10 11:18:28;;;;;;;4.75;0.95;;;;;;;;;;5066654;28;20835;-63
2021/04/10 11:21:13;;;;;;;4.25;0.90;;;;;;;;;;5059718;28;22009;-63
2021/04/10 11:23:57;;;;;;;2.97;0.52;;;;;;;;;;5060318;28;20028;-63
2021/04/10 11:26:33;;;;;;;3.13;0.60;;;;;;;;;;5046639;28;20047;-63
2021/04/10 11:29:14;;;;;;;7.97;0.93;;;;;;;;;;5055165;28;20449;-63
2021/04/10 11:31:40;;;;;;;6.43;1.17;;;;;;;;;;5057630;28;20029;-63
2021/04/10 11:34:24;;;;;;;2.10;0.77;;;;;;;;;;5064836;28;21085;-62
2021/04/10 11:36:55;;;;;;;2.37;0.63;;;;;;;;;;5061267;28;20103;-63
2021/04/10 11:39:23;;;;;;;6.78;0.77;;;;;;;;;;5062525;28;20374;-63
2021/04/10 11:41:49;;;;;;;2.65;0.70;;;;;;;;;;5061382;28;20153;-63
2021/04/10 11:44:15;;;;;;;5.90;1.00;;;;;;;;;;5061398;28;20140;-62
2021/04/10 11:46:45;;;;;;;2.33;0.90;;;;;;;;;;5060399;28;20043;-63
2021/04/10 11:49:24;;;;;;;4.78;0.65;;;;;;;;;;5064598;28;20028;-62
2021/04/10 11:51:51;;;;;;;3.83;0.68;;;;;;;;;;5062940;28;20422;-63
2021/04/10 11:54:31;;;;;;;2.88;0.85;;;;;;;;;;5065975;28;20097;-63
2021/04/10 11:56:57;;;;;;;2.30;0.63;;;;;;;;;;5064459;28;20051;-62
2021/04/10 11:59:29;;;;;;;3.90;0.90;;;;;;;;;;5063676;28;20565;-63
2021/04/10 12:02:01;;;;;;;6.63;1.10;;;;;;;;;;5061792;28;20035;-63
2021/04/10 12:04:28;;;;;;;2.15;0.60;;;;;;;;;;5069231;28;20035;-62
2021/04/10 12:07:12;;;;;;;6.40;0.90;;;;;;;;;;5061973;28;20028;-63
2021/04/10 12:09:45;;;;;;;3.15;0.77;;;;;;;;;;5062297;28;20051;-62
2021/04/10 12:12:11;;;;;;;6.53;1.10;;;;;;;;;;5063126;28;20024;-63
2021/04/10 12:14:40;;;;;;;4.38;0.77;;;;;;;;;;5063171;28;20024;-62
2021/04/10 12:17:06;;;;;;;3.40;0.65;;;;;;;;;;5063588;28;20020;-63
2021/04/10 12:19:33;;;;;;;10.52;0.85;;;;;;;;;;5064672;28;20059;-63
2021/04/10 12:22:02;;;;;;;7.68;0.82;;;;;;;;;;5059352;28;20041;-61
2021/04/10 12:24:28;;;;;;;4.78;1.15;;;;;;;;;;5038904;28;20995;-63
2021/04/10 12:26:56;;;;;;;4.53;0.90;;;;;;;;;;5062457;28;20391;-62
2021/04/10 12:29:27;;;;;;;2.67;0.75;;;;;;;;;;5060416;28;20053;-62
2021/04/10 12:31:57;;;;;;;2.78;0.63;;;;;;;;;;5061846;28;20605;-61
2021/04/10 12:34:22;;;;;;;4.93;1.00;;;;;;;;;;5062206;28;20098;-62
2021/04/10 12:36:49;;;;;;;0.95;0.40;;;;;;;;;;5063708;28;20040;-61
2021/04/10 12:39:19;;;;;;;5.57;0.70;;;;;;;;;;5034101;28;20038;-63
2021/04/10 12:41:46;;;;;;;1.75;0.90;;;;;;;;;;5058794;28;20039;-62
2021/04/10 12:44:12;;;;;;;5.90;0.90;;;;;;;;;;5065634;28;20577;-62
2021/04/10 12:46:40;;;;;;;6.28;0.75;;;;;;;;;;5062521;28;20036;-62
2021/04/10 12:49:08;;;;;;;2.38;0.50;;;;;;;;;;5048247;28;20040;-62
2021/04/10 12:51:33;;;;;;;2.80;0.73;;;;;;;;;;5065241;28;20043;-61
2021/04/10 12:53:59;;;;;;;3.15;0.52;;;;;;;;;;5045485;28;20032;-62
2021/04/10 12:56:28;;;;;;;0.63;0.30;;;;;;;;;;5063392;28;20036;-62
2021/04/10 12:58:55;;;;;;;4.47;1.00;;;;;;;;;;5063060;28;20119;-62
2021/04/10 13:01:23;;;;;;;2.95;1.25;;;;;;;;;;5059437;28;20030;-61
2021/04/10 13:03:53;;;;;;;2.50;0.50;;;;;;;;;;5044722;28;20065;-62
2021/04/10 13:06:23;;;;;;;3.53;0.52;;;;;;;;;;5067962;28;20918;-63
2021/04/10 13:08:51;;;;;;;2.50;0.47;;;;;;;;;;5061598;28;20043;-62
2021/04/10 13:11:19;;;;;;;2.72;0.60;;;;;;;;;;5060377;28;20502;-61
2021/04/10 13:13:47;;;;;;;5.70;0.50;;;;;;;;;;5059353;28;20053;-62
2021/04/10 13:16:13;;;;;;;2.67;0.68;;;;;;;;;;5061159;28;20133;-62
2021/04/10 13:18:41;;;;;;;2.75;0.57;;;;;;;;;;5061028;28;20141;-61
2021/04/10 13:21:11;;;;;;;4.25;0.70;;;;;;;;;;5064573;28;20128;-61
2021/04/10 13:23:39;;;;;;;2.92;0.63;;;;;;;;;;5059699;28;20250;-61
2021/04/10 13:26:07;;;;;;;8.88;0.88;;;;;;;;;;5058877;28;20024;-62
2021/04/10 13:28:36;;;;;;;6.97;0.85;;;;;;;;;;5045663;28;20123;-62
2021/04/10 13:31:04;;;;;;;2.88;0.45;;;;;;;;;;5062358;28;20723;-62
2021/04/10 13:33:32;;;;;;;4.75;0.70;;;;;;;;;;5062132;28;20036;-62
2021/04/10 13:35:57;;;;;;;4.32;0.77;;;;;;;;;;5044692;28;20048;-62
2021/04/10 13:38:25;;;;;;;2.08;0.40;;;;;;;;;;5058778;28;20065;-62
2021/04/10 13:40:52;;;;;;;2.10;0.65;;;;;;;;;;5053804;28;20078;-62
2021/04/10 13:43:19;;;;;;;4.57;0.88;;;;;;;;;;5061436;28;20632;-62
2021/04/10 13:45:48;;;;;;;9.00;0.93;;;;;;;;;;5062613;28;20066;-62
2021/04/10 13:48:16;;;;;;;3.72;0.77;;;;;;;;;;5061197;28;20495;-62
2021/04/10 13:50:44;;;;;;;4.10;0.63;;;;;;;;;;5068545;28;20032;-61
2021/04/10 13:53:15;;;;;;;3.65;0.70;;;;;;;;;;5060154;28;20036;-61
2021/04/10 13:55:43;;;;;;;4.75;0.80;;;;;;;;;;5057685;28;20056;-61
2021/04/10 13:58:11;;;;;;;2.10;0.82;;;;;;;;;;5058878;28;20028;-61
2021/04/10 14:00:39;;;;;;;6.95;0.88;;;;;;;;;;5060838;28;20587;-61
2021/04/10 14:03:08;;;;;;;2.22;0.80;;;;;;;;;;5062249;28;20036;-61
2021/04/10 14:05:39;;;;;;;5.50;0.85;;;;;;;;;;5068011;28;20687;-61
2021/04/10 14:08:07;;;;;;;2.08;1.00;;;;;;;;;;5072375;28;20036;-62
2021/04/10 14:10:34;;;;;;;5.00;0.77;;;;;;;;;;5061505;28;20024;-61
2021/04/10 14:13:00;;;;;;;2.08;0.75;;;;;;;;;;5042647;28;20043;-64
2021/04/10 14:15:33;;;;;;;1.90;0.73;;;;;;;;;;5060213;27;20113;-60
2021/04/10 14:18:03;;;;;;;5.22;0.55;;;;;;;;;;5060579;28;20025;-60
2021/04/10 14:20:32;;;;;;;2.33;0.80;;;;;;;;;;5058199;28;20558;-61
2021/04/10 14:23:04;;;;;;;4.85;1.27;;;;;;;;;;5054744;28;20032;-60
2021/04/10 14:25:31;;;;;;;5.78;0.98;;;;;;;;;;5059003;28;20035;-61
2021/04/10 14:27:57;;;;;;;5.63;0.93;;;;;;;;;;5058652;28;20415;-61
2021/04/10 14:30:24;;;;;;;7.72;1.83;;;;;;;;;;5059429;28;20093;-63
2021/04/10 14:32:52;;;;;;;2.45;0.77;;;;;;;;;;5059601;28;20901;-59
2021/04/10 14:35:19;;;;;;;3.50;1.02;;;;;;;;;;5055439;28;20138;-61
2021/04/10 14:37:45;;;;;;;3.67;0.90;;;;;;;;;;5059074;28;20302;-60
2021/04/10 14:40:15;;;;;;;7.53;1.40;;;;;;;;;;5043438;28;20731;-60
2021/04/10 14:42:43;;;;;;;5.05;0.93;;;;;;;;;;5056363;28;20798;-60
2021/04/10 14:45:12;;;;;;;3.80;1.20;;;;;;;;;;5060069;28;20471;-61
2021/04/10 14:47:40;;;;;;;9.38;1.65;;;;;;;;;;5060758;28;20047;-61
2021/04/10 14:50:09;;;;;;;4.30;1.25;;;;;;;;;;5046110;28;20025;-60
2021/04/10 14:52:35;;;;;;;8.50;1.40;;;;;;;;;;5059677;28;20044;-61
2021/04/10 14:55:01;;;;;;;8.65;1.80;;;;;;;;;;5058267;28;20121;-61